sensor_id;sensor_type;location;lat;lon;timestamp;temperature;humidity
71304;DHT22;59091;47.446;19.148;2023-04-12T00:01:01;8.29;70.32
71304;DHT22;59091;47.446;19.148;2023-04-12T00:03:28;8.43;70.09
71304;DHT22;59091;47.446;19.148;2023-04-12T00:05:54;8.32;70.50
71304;DHT22;59091;47.446;19.148;2023-04-12T00:08:20;8.22;70.95
71304;DHT22;59091;47.446;19.148;2023-04-12T00:10:57;8.33;70.80
71304;DHT22;59091;47.446;19.148;2023-04-12T00:13:22;8.26;70.99
71304;DHT22;59091;47.446;19.148;2023-04-12T00:15:48;8.06;71.55
71304;DHT22;59091;47.446;19.148;2023-04-12T00:18:13;8.19;71.55
71304;DHT22;59091;47.446;19.148;2023-04-12T00:20:38;8.13;71.51
71304;DHT22;59091;47.446;19.148;2023-04-12T00:23:04;8.09;71.95
71304;DHT22;59091;47.446;19.148;2023-04-12T00:25:29;8.06;71.89
71304;DHT22;59091;47.446;19.148;2023-04-12T00:27:55;8.01;71.97
71304;DHT22;59091;47.446;19.148;2023-04-12T00:30:20;7.92;72.26
71304;DHT22;59091;47.446;19.148;2023-04-12T00:32:46;7.95;72.12
71304;DHT22;59091;47.446;19.148;2023-04-12T00:35:11;7.95;72.27
71304;DHT22;59091;47.446;19.148;2023-04-12T00:37:37;7.99;72.40
71304;DHT22;59091;47.446;19.148;2023-04-12T00:40:02;8.03;72.29
71304;DHT22;59091;47.446;19.148;2023-04-12T00:42:28;7.85;72.55
71304;DHT22;59091;47.446;19.148;2023-04-12T00:44:54;7.91;72.65
71304;DHT22;59091;47.446;19.148;2023-04-12T00:47:19;8.02;72.50
71304;DHT22;59091;47.446;19.148;2023-04-12T00:49:45;7.95;72.67
71304;DHT22;59091;47.446;19.148;2023-04-12T00:52:11;7.82;72.98
71304;DHT22;59091;47.446;19.148;2023-04-12T00:54:40;7.95;72.78
71304;DHT22;59091;47.446;19.148;2023-04-12T00:57:06;7.90;72.77
71304;DHT22;59091;47.446;19.148;2023-04-12T00:59:31;7.77;72.93
71304;DHT22;59091;47.446;19.148;2023-04-12T01:01:58;7.77;73.22
71304;DHT22;59091;47.446;19.148;2023-04-12T01:04:24;7.85;72.94
71304;DHT22;59091;47.446;19.148;2023-04-12T01:07:24;7.77;72.76
71304;DHT22;59091;47.446;19.148;2023-04-12T01:10:03;7.66;73.20
71304;DHT22;59091;47.446;19.148;2023-04-12T01:12:46;7.70;73.19
71304;DHT22;59091;47.446;19.148;2023-04-12T01:15:15;7.88;72.81
71304;DHT22;59091;47.446;19.148;2023-04-12T01:17:51;7.87;72.38
71304;DHT22;59091;47.446;19.148;2023-04-12T01:20:35;7.84;72.40
71304;DHT22;59091;47.446;19.148;2023-04-12T01:28:21;7.78;72.55
71304;DHT22;59091;47.446;19.148;2023-04-12T01:30:49;7.71;72.99
71304;DHT22;59091;47.446;19.148;2023-04-12T01:33:16;7.78;73.08
71304;DHT22;59091;47.446;19.148;2023-04-12T01:35:43;7.74;72.92
71304;DHT22;59091;47.446;19.148;2023-04-12T01:38:09;7.74;73.07
71304;DHT22;59091;47.446;19.148;2023-04-12T01:40:35;7.64;73.27
71304;DHT22;59091;47.446;19.148;2023-04-12T01:43:10;7.51;73.52
71304;DHT22;59091;47.446;19.148;2023-04-12T01:45:37;7.59;73.61
71304;DHT22;59091;47.446;19.148;2023-04-12T01:48:04;7.67;73.30
71304;DHT22;59091;47.446;19.148;2023-04-12T01:50:48;7.60;73.39
71304;DHT22;59091;47.446;19.148;2023-04-12T01:56:12;7.77;73.10
71304;DHT22;59091;47.446;19.148;2023-04-12T01:58:41;7.80;72.97
71304;DHT22;59091;47.446;19.148;2023-04-12T02:01:08;7.69;73.40
71304;DHT22;59091;47.446;19.148;2023-04-12T02:03:36;7.70;73.27
71304;DHT22;59091;47.446;19.148;2023-04-12T02:06:02;7.80;72.66
71304;DHT22;59091;47.446;19.148;2023-04-12T02:08:29;7.74;72.91
71304;DHT22;59091;47.446;19.148;2023-04-12T02:10:55;7.74;72.59
71304;DHT22;59091;47.446;19.148;2023-04-12T02:13:20;7.74;72.80
71304;DHT22;59091;47.446;19.148;2023-04-12T02:15:45;7.82;72.46
71304;DHT22;59091;47.446;19.148;2023-04-12T02:18:11;7.73;72.80
71304;DHT22;59091;47.446;19.148;2023-04-12T02:20:38;7.59;72.86
71304;DHT22;59091;47.446;19.148;2023-04-12T02:23:03;7.75;72.42
71304;DHT22;59091;47.446;19.148;2023-04-12T02:25:29;7.70;72.06
71304;DHT22;59091;47.446;19.148;2023-04-12T02:27:55;7.59;72.69
71304;DHT22;59091;47.446;19.148;2023-04-12T02:30:20;7.57;72.72
71304;DHT22;59091;47.446;19.148;2023-04-12T02:32:47;7.53;72.96
71304;DHT22;59091;47.446;19.148;2023-04-12T02:35:14;7.47;72.92
71304;DHT22;59091;47.446;19.148;2023-04-12T02:37:44;7.56;72.67
71304;DHT22;59091;47.446;19.148;2023-04-12T02:40:13;7.66;72.28
71304;DHT22;59091;47.446;19.148;2023-04-12T02:42:43;7.67;71.93
71304;DHT22;59091;47.446;19.148;2023-04-12T02:45:09;7.74;71.62
71304;DHT22;59091;47.446;19.148;2023-04-12T02:47:35;7.53;72.01
71304;DHT22;59091;47.446;19.148;2023-04-12T02:50:02;7.59;71.97
71304;DHT22;59091;47.446;19.148;2023-04-12T02:52:28;7.60;71.98
71304;DHT22;59091;47.446;19.148;2023-04-12T02:54:55;7.43;72.22
71304;DHT22;59091;47.446;19.148;2023-04-12T02:57:20;7.44;72.30
71304;DHT22;59091;47.446;19.148;2023-04-12T02:59:49;7.46;71.86
71304;DHT22;59091;47.446;19.148;2023-04-12T03:02:17;7.44;72.09
71304;DHT22;59091;47.446;19.148;2023-04-12T03:04:43;7.27;72.47
71304;DHT22;59091;47.446;19.148;2023-04-12T03:07:11;7.36;72.29
71304;DHT22;59091;47.446;19.148;2023-04-12T03:09:37;7.16;72.75
71304;DHT22;59091;47.446;19.148;2023-04-12T03:12:03;7.36;72.52
71304;DHT22;59091;47.446;19.148;2023-04-12T03:14:29;7.34;72.03
71304;DHT22;59091;47.446;19.148;2023-04-12T03:16:54;7.39;71.91
71304;DHT22;59091;47.446;19.148;2023-04-12T03:19:20;7.27;72.15
71304;DHT22;59091;47.446;19.148;2023-04-12T03:21:45;7.42;71.79
71304;DHT22;59091;47.446;19.148;2023-04-12T03:24:12;7.27;72.00
71304;DHT22;59091;47.446;19.148;2023-04-12T03:26:38;7.33;71.87
71304;DHT22;59091;47.446;19.148;2023-04-12T03:29:03;7.31;71.72
71304;DHT22;59091;47.446;19.148;2023-04-12T03:31:30;7.39;71.76
71304;DHT22;59091;47.446;19.148;2023-04-12T03:33:55;7.39;71.62
71304;DHT22;59091;47.446;19.148;2023-04-12T03:36:21;7.31;71.71
71304;DHT22;59091;47.446;19.148;2023-04-12T03:38:47;7.34;71.62
71304;DHT22;59091;47.446;19.148;2023-04-12T03:41:12;7.30;71.32
71304;DHT22;59091;47.446;19.148;2023-04-12T03:43:38;7.42;71.26
71304;DHT22;59091;47.446;19.148;2023-04-12T03:46:04;7.42;71.10
71304;DHT22;59091;47.446;19.148;2023-04-12T03:48:30;7.29;71.26
71304;DHT22;59091;47.446;19.148;2023-04-12T03:50:56;7.26;71.23
71304;DHT22;59091;47.446;19.148;2023-04-12T03:53:26;7.39;71.03
71304;DHT22;59091;47.446;19.148;2023-04-12T03:55:52;7.40;71.26
71304;DHT22;59091;47.446;19.148;2023-04-12T03:58:19;7.16;71.61
71304;DHT22;59091;47.446;19.148;2023-04-12T04:00:45;7.29;71.28
71304;DHT22;59091;47.446;19.148;2023-04-12T04:03:11;7.23;71.32
71304;DHT22;59091;47.446;19.148;2023-04-12T04:05:36;7.22;71.01
71304;DHT22;59091;47.446;19.148;2023-04-12T04:08:02;7.40;70.73
71304;DHT22;59091;47.446;19.148;2023-04-12T04:10:31;7.49;70.27
71304;DHT22;59091;47.446;19.148;2023-04-12T04:12:56;7.29;70.12
71304;DHT22;59091;47.446;19.148;2023-04-12T04:15:23;7.36;70.19
71304;DHT22;59091;47.446;19.148;2023-04-12T04:17:49;7.50;70.04
71304;DHT22;59091;47.446;19.148;2023-04-12T04:20:15;7.57;70.18
71304;DHT22;59091;47.446;19.148;2023-04-12T04:22:42;7.59;69.42
71304;DHT22;59091;47.446;19.148;2023-04-12T04:25:08;7.66;71.18
71304;DHT22;59091;47.446;19.148;2023-04-12T04:27:34;7.63;68.89
71304;DHT22;59091;47.446;19.148;2023-04-12T04:30:03;7.71;68.62
71304;DHT22;59091;47.446;19.148;2023-04-12T04:32:29;7.64;68.88
71304;DHT22;59091;47.446;19.148;2023-04-12T04:34:56;7.87;69.68
71304;DHT22;59091;47.446;19.148;2023-04-12T04:37:27;7.88;67.79
71304;DHT22;59091;47.446;19.148;2023-04-12T04:39:52;7.97;67.50
71304;DHT22;59091;47.446;19.148;2023-04-12T04:42:18;8.05;67.11
71304;DHT22;59091;47.446;19.148;2023-04-12T04:44:43;8.09;66.99
71304;DHT22;59091;47.446;19.148;2023-04-12T04:47:09;8.03;66.73
71304;DHT22;59091;47.446;19.148;2023-04-12T04:49:36;7.97;66.94
71304;DHT22;59091;47.446;19.148;2023-04-12T04:52:02;7.91;67.00
71304;DHT22;59091;47.446;19.148;2023-04-12T04:54:28;8.01;67.13
71304;DHT22;59091;47.446;19.148;2023-04-12T04:56:53;8.03;66.40
71304;DHT22;59091;47.446;19.148;2023-04-12T04:59:19;8.03;66.18
71304;DHT22;59091;47.446;19.148;2023-04-12T05:01:44;8.36;69.46
71304;DHT22;59091;47.446;19.148;2023-04-12T05:04:10;8.62;73.84
71304;DHT22;59091;47.446;19.148;2023-04-12T05:06:37;8.72;68.40
71304;DHT22;59091;47.446;19.148;2023-04-12T05:09:02;8.70;64.42
71304;DHT22;59091;47.446;19.148;2023-04-12T05:11:29;8.62;64.04
71304;DHT22;59091;47.446;19.148;2023-04-12T05:13:55;8.66;64.22
71304;DHT22;59091;47.446;19.148;2023-04-12T05:16:20;8.63;63.94
71304;DHT22;59091;47.446;19.148;2023-04-12T05:18:46;8.60;64.28
71304;DHT22;59091;47.446;19.148;2023-04-12T05:21:11;8.74;64.66
71304;DHT22;59091;47.446;19.148;2023-04-12T05:23:41;8.60;63.90
71304;DHT22;59091;47.446;19.148;2023-04-12T05:26:07;8.53;64.13
71304;DHT22;59091;47.446;19.148;2023-04-12T05:28:32;8.62;64.01
71304;DHT22;59091;47.446;19.148;2023-04-12T05:30:58;8.54;64.20
71304;DHT22;59091;47.446;19.148;2023-04-12T05:33:23;8.64;63.96
71304;DHT22;59091;47.446;19.148;2023-04-12T05:35:48;8.76;63.59
71304;DHT22;59091;47.446;19.148;2023-04-12T05:38:14;8.66;63.20
71304;DHT22;59091;47.446;19.148;2023-04-12T05:40:40;8.83;62.55
71304;DHT22;59091;47.446;19.148;2023-04-12T05:43:08;8.80;62.66
71304;DHT22;59091;47.446;19.148;2023-04-12T05:45:37;8.91;62.14
71304;DHT22;59091;47.446;19.148;2023-04-12T05:48:03;8.97;62.24
71304;DHT22;59091;47.446;19.148;2023-04-12T05:50:28;8.96;61.70
71304;DHT22;59091;47.446;19.148;2023-04-12T05:52:54;8.87;61.73
71304;DHT22;59091;47.446;19.148;2023-04-12T05:55:20;8.91;61.57
71304;DHT22;59091;47.446;19.148;2023-04-12T05:57:45;9.05;61.04
71304;DHT22;59091;47.446;19.148;2023-04-12T06:00:12;9.00;61.03
71304;DHT22;59091;47.446;19.148;2023-04-12T06:02:39;9.28;61.20
71304;DHT22;59091;47.446;19.148;2023-04-12T06:05:05;9.21;60.65
71304;DHT22;59091;47.446;19.148;2023-04-12T06:07:30;9.46;60.74
71304;DHT22;59091;47.446;19.148;2023-04-12T06:09:56;9.48;60.30
71304;DHT22;59091;47.446;19.148;2023-04-12T06:12:21;9.61;60.00
71304;DHT22;59091;47.446;19.148;2023-04-12T06:14:47;9.59;59.99
71304;DHT22;59091;47.446;19.148;2023-04-12T06:17:12;9.68;59.80
71304;DHT22;59091;47.446;19.148;2023-04-12T06:19:38;9.75;59.48
71304;DHT22;59091;47.446;19.148;2023-04-12T06:22:03;9.74;59.18
71304;DHT22;59091;47.446;19.148;2023-04-12T06:24:29;9.78;59.35
71304;DHT22;59091;47.446;19.148;2023-04-12T06:26:54;9.79;58.90
71304;DHT22;59091;47.446;19.148;2023-04-12T06:29:20;9.85;59.47
71304;DHT22;59091;47.446;19.148;2023-04-12T06:31:45;9.97;59.30
71304;DHT22;59091;47.446;19.148;2023-04-12T06:34:11;10.12;59.16
71304;DHT22;59091;47.446;19.148;2023-04-12T06:36:36;10.09;59.10
71304;DHT22;59091;47.446;19.148;2023-04-12T06:39:04;10.13;58.73
71304;DHT22;59091;47.446;19.148;2023-04-12T06:41:29;10.02;58.25
71304;DHT22;59091;47.446;19.148;2023-04-12T06:43:55;10.05;58.31
71304;DHT22;59091;47.446;19.148;2023-04-12T06:46:27;10.20;57.96
71304;DHT22;59091;47.446;19.148;2023-04-12T06:48:53;10.06;58.02
71304;DHT22;59091;47.446;19.148;2023-04-12T06:51:18;10.10;57.85
71304;DHT22;59091;47.446;19.148;2023-04-12T06:53:43;10.09;57.42
71304;DHT22;59091;47.446;19.148;2023-04-12T06:56:09;10.18;57.50
71304;DHT22;59091;47.446;19.148;2023-04-12T06:58:34;10.33;57.49
71304;DHT22;59091;47.446;19.148;2023-04-12T07:01:07;10.33;56.89
71304;DHT22;59091;47.446;19.148;2023-04-12T07:03:34;10.37;56.69
71304;DHT22;59091;47.446;19.148;2023-04-12T07:05:59;10.47;56.62
71304;DHT22;59091;47.446;19.148;2023-04-12T07:08:27;10.50;56.09
71304;DHT22;59091;47.446;19.148;2023-04-12T07:10:54;10.68;55.79
71304;DHT22;59091;47.446;19.148;2023-04-12T07:13:19;10.71;55.89
71304;DHT22;59091;47.446;19.148;2023-04-12T07:15:45;10.78;55.33
71304;DHT22;59091;47.446;19.148;2023-04-12T07:18:11;10.68;55.20
71304;DHT22;59091;47.446;19.148;2023-04-12T07:20:36;10.89;55.12
71304;DHT22;59091;47.446;19.148;2023-04-12T07:23:02;10.82;54.53
71304;DHT22;59091;47.446;19.148;2023-04-12T07:25:27;10.96;54.68
71304;DHT22;59091;47.446;19.148;2023-04-12T07:27:53;11.11;54.46
71304;DHT22;59091;47.446;19.148;2023-04-12T07:30:18;11.11;54.08
71304;DHT22;59091;47.446;19.148;2023-04-12T07:32:44;11.32;53.33
71304;DHT22;59091;47.446;19.148;2023-04-12T07:35:09;11.50;53.12
71304;DHT22;59091;47.446;19.148;2023-04-12T07:37:35;11.81;52.08
71304;DHT22;59091;47.446;19.148;2023-04-12T07:40:01;11.97;51.32
71304;DHT22;59091;47.446;19.148;2023-04-12T07:42:26;12.45;50.27
71304;DHT22;59091;47.446;19.148;2023-04-12T07:44:52;12.69;49.81
71304;DHT22;59091;47.446;19.148;2023-04-12T07:47:17;12.83;48.60
71304;DHT22;59091;47.446;19.148;2023-04-12T07:49:43;13.07;48.91
71304;DHT22;59091;47.446;19.148;2023-04-12T07:52:08;13.17;48.26
71304;DHT22;59091;47.446;19.148;2023-04-12T07:54:33;12.90;47.76
71304;DHT22;59091;47.446;19.148;2023-04-12T07:57:00;13.19;48.05
71304;DHT22;59091;47.446;19.148;2023-04-12T07:59:27;13.34;46.93
71304;DHT22;59091;47.446;19.148;2023-04-12T08:01:52;13.53;47.34
71304;DHT22;59091;47.446;19.148;2023-04-12T08:04:18;13.39;47.07
71304;DHT22;59091;47.446;19.148;2023-04-12T08:06:43;13.67;46.61
71304;DHT22;59091;47.446;19.148;2023-04-12T08:09:09;13.64;47.16
71304;DHT22;59091;47.446;19.148;2023-04-12T08:11:34;14.09;46.74
71304;DHT22;59091;47.446;19.148;2023-04-12T08:14:00;14.21;45.56
71304;DHT22;59091;47.446;19.148;2023-04-12T08:16:25;14.18;43.85
71304;DHT22;59091;47.446;19.148;2023-04-12T08:18:51;14.59;44.36
71304;DHT22;59091;47.446;19.148;2023-04-12T08:21:17;14.74;43.40
71304;DHT22;59091;47.446;19.148;2023-04-12T08:23:42;14.56;42.81
71304;DHT22;59091;47.446;19.148;2023-04-12T08:26:08;14.85;42.86
71304;DHT22;59091;47.446;19.148;2023-04-12T08:28:34;14.98;43.24
71304;DHT22;59091;47.446;19.148;2023-04-12T08:30:59;14.95;42.76
71304;DHT22;59091;47.446;19.148;2023-04-12T08:33:25;14.83;42.98
71304;DHT22;59091;47.446;19.148;2023-04-12T08:35:51;14.85;42.86
71304;DHT22;59091;47.446;19.148;2023-04-12T08:38:17;15.00;43.15
71304;DHT22;59091;47.446;19.148;2023-04-12T08:40:43;15.12;42.86
71304;DHT22;59091;47.446;19.148;2023-04-12T08:43:11;15.01;42.70
71304;DHT22;59091;47.446;19.148;2023-04-12T08:45:37;14.83;44.86
71304;DHT22;59091;47.446;19.148;2023-04-12T08:48:04;14.70;44.51
71304;DHT22;59091;47.446;19.148;2023-04-12T08:50:31;14.44;44.20
71304;DHT22;59091;47.446;19.148;2023-04-12T08:52:57;14.67;44.76
71304;DHT22;59091;47.446;19.148;2023-04-12T08:55:23;14.56;44.39
71304;DHT22;59091;47.446;19.148;2023-04-12T08:57:52;14.67;44.56
71304;DHT22;59091;47.446;19.148;2023-04-12T09:00:19;14.81;43.58
71304;DHT22;59091;47.446;19.148;2023-04-12T09:02:45;14.50;43.75
71304;DHT22;59091;47.446;19.148;2023-04-12T09:05:13;14.23;44.20
71304;DHT22;59091;47.446;19.148;2023-04-12T09:07:39;14.29;44.95
71304;DHT22;59091;47.446;19.148;2023-04-12T09:10:05;14.25;45.57
71304;DHT22;59091;47.446;19.148;2023-04-12T09:12:30;14.29;45.88
71304;DHT22;59091;47.446;19.148;2023-04-12T09:15:11;14.34;44.86
71304;DHT22;59091;47.446;19.148;2023-04-12T09:17:38;14.52;44.26
71304;DHT22;59091;47.446;19.148;2023-04-12T09:20:23;14.43;43.37
71304;DHT22;59091;47.446;19.148;2023-04-12T09:22:50;14.56;44.53
71304;DHT22;59091;47.446;19.148;2023-04-12T09:25:17;14.60;43.48
71304;DHT22;59091;47.446;19.148;2023-04-12T09:27:50;14.19;43.77
71304;DHT22;59091;47.446;19.148;2023-04-12T09:30:17;14.09;44.15
71304;DHT22;59091;47.446;19.148;2023-04-12T09:32:43;14.12;43.75
71304;DHT22;59091;47.446;19.148;2023-04-12T09:35:08;14.19;44.65
71304;DHT22;59091;47.446;19.148;2023-04-12T09:37:34;14.18;42.72
71304;DHT22;59091;47.446;19.148;2023-04-12T09:40:02;14.23;43.30
71304;DHT22;59091;47.446;19.148;2023-04-12T09:42:29;14.28;43.08
71304;DHT22;59091;47.446;19.148;2023-04-12T09:44:59;14.16;43.19
71304;DHT22;59091;47.446;19.148;2023-04-12T09:47:45;14.21;43.89
71304;DHT22;59091;47.446;19.148;2023-04-12T09:50:22;14.29;42.91
71304;DHT22;59091;47.446;19.148;2023-04-12T09:52:48;14.36;42.67
71304;DHT22;59091;47.446;19.148;2023-04-12T09:55:14;14.63;42.64
71304;DHT22;59091;47.446;19.148;2023-04-12T09:57:41;14.50;43.34
71304;DHT22;59091;47.446;19.148;2023-04-12T10:00:09;14.67;43.44
71304;DHT22;59091;47.446;19.148;2023-04-12T10:02:48;14.74;42.32
71304;DHT22;59091;47.446;19.148;2023-04-12T10:05:20;14.76;42.44
71304;DHT22;59091;47.446;19.148;2023-04-12T10:07:46;14.88;42.99
71304;DHT22;59091;47.446;19.148;2023-04-12T10:10:16;14.94;41.86
71304;DHT22;59091;47.446;19.148;2023-04-12T10:12:43;14.94;42.62
71304;DHT22;59091;47.446;19.148;2023-04-12T10:15:10;14.97;41.82
71304;DHT22;59091;47.446;19.148;2023-04-12T10:17:44;15.04;43.19
71304;DHT22;59091;47.446;19.148;2023-04-12T10:20:11;15.12;41.70
71304;DHT22;59091;47.446;19.148;2023-04-12T10:22:39;15.15;43.45
71304;DHT22;59091;47.446;19.148;2023-04-12T10:25:18;15.41;42.88
71304;DHT22;59091;47.446;19.148;2023-04-12T10:27:44;15.05;39.73
71304;DHT22;59091;47.446;19.148;2023-04-12T10:30:30;14.95;40.33
71304;DHT22;59091;47.446;19.148;2023-04-12T10:35:28;15.11;40.06
71304;DHT22;59091;47.446;19.148;2023-04-12T10:38:03;15.02;39.09
71304;DHT22;59091;47.446;19.148;2023-04-12T10:40:32;15.24;40.01
71304;DHT22;59091;47.446;19.148;2023-04-12T10:43:27;15.18;39.74
71304;DHT22;59091;47.446;19.148;2023-04-12T10:45:53;15.34;39.24
71304;DHT22;59091;47.446;19.148;2023-04-12T10:48:29;15.43;37.60
71304;DHT22;59091;47.446;19.148;2023-04-12T10:51:23;15.65;36.64
71304;DHT22;59091;47.446;19.148;2023-04-12T10:56:40;15.56;38.18
71304;DHT22;59091;47.446;19.148;2023-04-12T10:59:07;15.62;39.51
71304;DHT22;59091;47.446;19.148;2023-04-12T11:01:33;15.43;38.89
71304;DHT22;59091;47.446;19.148;2023-04-12T11:11:50;15.41;36.10
71304;DHT22;59091;47.446;19.148;2023-04-12T11:14:16;15.38;35.60
71304;DHT22;59091;47.446;19.148;2023-04-12T11:19:36;15.36;35.35
71304;DHT22;59091;47.446;19.148;2023-04-12T11:22:06;15.48;35.65
71304;DHT22;59091;47.446;19.148;2023-04-12T11:24:32;15.53;37.41
71304;DHT22;59091;47.446;19.148;2023-04-12T11:26:58;15.72;37.57
71304;DHT22;59091;47.446;19.148;2023-04-12T11:29:25;15.83;38.66
71304;DHT22;59091;47.446;19.148;2023-04-12T11:31:51;15.89;37.37
71304;DHT22;59091;47.446;19.148;2023-04-12T11:34:18;15.89;36.61
71304;DHT22;59091;47.446;19.148;2023-04-12T11:36:52;15.72;35.25
71304;DHT22;59091;47.446;19.148;2023-04-12T11:39:18;15.75;35.53
71304;DHT22;59091;47.446;19.148;2023-04-12T11:41:44;15.99;35.77
71304;DHT22;59091;47.446;19.148;2023-04-12T11:44:11;15.82;35.76
71304;DHT22;59091;47.446;19.148;2023-04-12T11:46:37;15.90;36.06
71304;DHT22;59091;47.446;19.148;2023-04-12T11:49:03;15.63;36.54
71304;DHT22;59091;47.446;19.148;2023-04-12T11:51:29;15.73;36.87
71304;DHT22;59091;47.446;19.148;2023-04-12T11:53:55;15.92;37.59
71304;DHT22;59091;47.446;19.148;2023-04-12T11:56:22;15.72;35.73
71304;DHT22;59091;47.446;19.148;2023-04-12T11:58:48;15.72;36.04
71304;DHT22;59091;47.446;19.148;2023-04-12T12:01:18;15.72;34.64
71304;DHT22;59091;47.446;19.148;2023-04-12T12:03:45;15.89;34.24
71304;DHT22;59091;47.446;19.148;2023-04-12T12:06:11;15.97;34.05
71304;DHT22;59091;47.446;19.148;2023-04-12T12:08:38;16.10;34.45
71304;DHT22;59091;47.446;19.148;2023-04-12T12:11:04;16.02;35.15
71304;DHT22;59091;47.446;19.148;2023-04-12T12:13:47;16.00;34.24
71304;DHT22;59091;47.446;19.148;2023-04-12T12:16:12;16.23;35.68
71304;DHT22;59091;47.446;19.148;2023-04-12T12:18:42;16.35;35.07
71304;DHT22;59091;47.446;19.148;2023-04-12T12:21:08;16.51;35.85
71304;DHT22;59091;47.446;19.148;2023-04-12T12:23:34;16.35;34.14
71304;DHT22;59091;47.446;19.148;2023-04-12T12:26:01;16.28;34.36
71304;DHT22;59091;47.446;19.148;2023-04-12T12:28:36;16.33;34.08
71304;DHT22;59091;47.446;19.148;2023-04-12T12:31:09;16.45;34.30
71304;DHT22;59091;47.446;19.148;2023-04-12T12:33:41;16.55;33.72
71304;DHT22;59091;47.446;19.148;2023-04-12T12:36:07;16.41;33.82
71304;DHT22;59091;47.446;19.148;2023-04-12T12:38:36;16.44;34.55
71304;DHT22;59091;47.446;19.148;2023-04-12T12:41:19;16.40;33.98
71304;DHT22;59091;47.446;19.148;2023-04-12T12:43:46;16.57;34.10
71304;DHT22;59091;47.446;19.148;2023-04-12T12:46:12;16.44;33.04
71304;DHT22;59091;47.446;19.148;2023-04-12T12:48:39;16.50;33.27
71304;DHT22;59091;47.446;19.148;2023-04-12T12:51:05;16.75;33.46
71304;DHT22;59091;47.446;19.148;2023-04-12T12:53:30;16.67;32.99
71304;DHT22;59091;47.446;19.148;2023-04-12T12:55:56;16.64;33.18
71304;DHT22;59091;47.446;19.148;2023-04-12T12:58:21;16.57;33.12
71304;DHT22;59091;47.446;19.148;2023-04-12T13:00:47;16.61;33.44
71304;DHT22;59091;47.446;19.148;2023-04-12T13:03:12;16.61;33.63
71304;DHT22;59091;47.446;19.148;2023-04-12T13:05:38;16.76;33.75
71304;DHT22;59091;47.446;19.148;2023-04-12T13:08:03;16.69;31.67
71304;DHT22;59091;47.446;19.148;2023-04-12T13:10:28;16.96;31.73
71304;DHT22;59091;47.446;19.148;2023-04-12T13:12:54;16.99;31.55
71304;DHT22;59091;47.446;19.148;2023-04-12T13:15:19;16.95;32.00
71304;DHT22;59091;47.446;19.148;2023-04-12T13:17:45;16.86;31.74
71304;DHT22;59091;47.446;19.148;2023-04-12T13:20:10;16.60;31.21
71304;DHT22;59091;47.446;19.148;2023-04-12T13:22:36;16.53;31.14
71304;DHT22;59091;47.446;19.148;2023-04-12T13:25:01;16.78;30.52
71304;DHT22;59091;47.446;19.148;2023-04-12T13:27:27;16.79;30.59
71304;DHT22;59091;47.446;19.148;2023-04-12T13:29:52;16.85;30.97
71304;DHT22;59091;47.446;19.148;2023-04-12T13:32:18;16.89;33.61
71304;DHT22;59091;47.446;19.148;2023-04-12T13:34:43;17.09;31.57
71304;DHT22;59091;47.446;19.148;2023-04-12T13:37:09;17.18;31.03
71304;DHT22;59091;47.446;19.148;2023-04-12T13:39:34;17.15;31.14
71304;DHT22;59091;47.446;19.148;2023-04-12T13:42:00;17.15;31.01
71304;DHT22;59091;47.446;19.148;2023-04-12T13:44:26;16.99;30.14
71304;DHT22;59091;47.446;19.148;2023-04-12T13:46:52;17.09;31.10
71304;DHT22;59091;47.446;19.148;2023-04-12T13:49:18;17.40;30.81
71304;DHT22;59091;47.446;19.148;2023-04-12T13:51:43;17.36;29.31
71304;DHT22;59091;47.446;19.148;2023-04-12T13:54:08;17.49;29.81
71304;DHT22;59091;47.446;19.148;2023-04-12T13:56:34;17.51;29.43
71304;DHT22;59091;47.446;19.148;2023-04-12T13:58:59;17.47;29.77
71304;DHT22;59091;47.446;19.148;2023-04-12T14:01:25;17.46;28.60
71304;DHT22;59091;47.446;19.148;2023-04-12T14:03:51;17.37;29.57
71304;DHT22;59091;47.446;19.148;2023-04-12T14:06:17;17.49;29.86
71304;DHT22;59091;47.446;19.148;2023-04-12T14:08:43;17.15;30.14
71304;DHT22;59091;47.446;19.148;2023-04-12T14:11:08;17.27;30.35
71304;DHT22;59091;47.446;19.148;2023-04-12T14:13:34;17.30;29.78
71304;DHT22;59091;47.446;19.148;2023-04-12T14:15:59;17.50;30.07
71304;DHT22;59091;47.446;19.148;2023-04-12T14:18:25;17.63;29.71
71304;DHT22;59091;47.446;19.148;2023-04-12T14:20:50;17.30;31.18
71304;DHT22;59091;47.446;19.148;2023-04-12T14:23:22;17.08;31.15
71304;DHT22;59091;47.446;19.148;2023-04-12T14:25:49;17.26;31.49
71304;DHT22;59091;47.446;19.148;2023-04-12T14:28:14;17.42;30.98
71304;DHT22;59091;47.446;19.148;2023-04-12T14:30:41;17.18;30.59
71304;DHT22;59091;47.446;19.148;2023-04-12T14:33:07;17.02;31.68
71304;DHT22;59091;47.446;19.148;2023-04-12T14:35:32;17.08;32.24
71304;DHT22;59091;47.446;19.148;2023-04-12T14:37:57;17.20;30.24
71304;DHT22;59091;47.446;19.148;2023-04-12T14:40:23;17.15;30.58
71304;DHT22;59091;47.446;19.148;2023-04-12T14:42:48;17.19;30.21
71304;DHT22;59091;47.446;19.148;2023-04-12T14:45:14;17.27;40.13
71304;DHT22;59091;47.446;19.148;2023-04-12T14:47:41;17.43;38.19
71304;DHT22;59091;47.446;19.148;2023-04-12T14:50:07;17.53;38.40
71304;DHT22;59091;47.446;19.148;2023-04-12T14:52:32;17.67;35.27
71304;DHT22;59091;47.446;19.148;2023-04-12T14:54:58;17.69;34.17
71304;DHT22;59091;47.446;19.148;2023-04-12T14:57:25;17.70;41.74
71304;DHT22;59091;47.446;19.148;2023-04-12T14:59:51;17.90;37.18
71304;DHT22;59091;47.446;19.148;2023-04-12T15:02:16;18.08;46.67
71304;DHT22;59091;47.446;19.148;2023-04-12T15:04:41;18.22;43.14
71304;DHT22;59091;47.446;19.148;2023-04-12T15:07:07;18.36;44.30
71304;DHT22;59091;47.446;19.148;2023-04-12T15:09:33;18.39;34.60
71304;DHT22;59091;47.446;19.148;2023-04-12T15:11:58;18.17;40.91
71304;DHT22;59091;47.446;19.148;2023-04-12T15:14:27;18.08;38.82
71304;DHT22;59091;47.446;19.148;2023-04-12T15:16:52;17.91;39.62
71304;DHT22;59091;47.446;19.148;2023-04-12T15:19:19;17.94;42.05
71304;DHT22;59091;47.446;19.148;2023-04-12T15:21:47;17.91;29.81
71304;DHT22;59091;47.446;19.148;2023-04-12T15:24:18;17.93;35.14
71304;DHT22;59091;47.446;19.148;2023-04-12T15:26:45;17.94;37.84
71304;DHT22;59091;47.446;19.148;2023-04-12T15:29:13;17.96;30.45
71304;DHT22;59091;47.446;19.148;2023-04-12T15:31:38;17.60;27.43
71304;DHT22;59091;47.446;19.148;2023-04-12T15:34:05;17.50;27.57
71304;DHT22;59091;47.446;19.148;2023-04-12T15:36:30;17.53;27.21
71304;DHT22;59091;47.446;19.148;2023-04-12T15:39:02;17.50;27.37
71304;DHT22;59091;47.446;19.148;2023-04-12T15:41:38;17.32;27.19
71304;DHT22;59091;47.446;19.148;2023-04-12T15:44:05;17.20;27.44
71304;DHT22;59091;47.446;19.148;2023-04-12T15:46:31;17.14;27.57